sensor_id;sensor_type;location;lat;lon;timestamp;pressure;altitude;pressure_sealevel;temperature;humidity
16100;BME280;8154;50.830;12.082;2023-02-01T00:16:06;99424.56;;;21.79;31.53
16100;BME280;8154;50.830;12.082;2023-02-01T00:18:39;99427.03;;;21.80;31.51
16100;BME280;8154;50.830;12.082;2023-02-01T00:21:14;99433.19;;;21.81;31.54
16100;BME280;8154;50.830;12.082;2023-02-01T00:23:41;99423.72;;;21.78;31.60
16100;BME280;8154;50.830;12.082;2023-02-01T00:26:19;99404.47;;;21.76;31.60
16100;BME280;8154;50.830;12.082;2023-02-01T00:29:04;99409.81;;;21.76;31.51
16100;BME280;8154;50.830;12.082;2023-02-01T00:31:34;99402.81;;;21.75;31.60
16100;BME280;8154;50.830;12.082;2023-02-01T00:34:12;99413.44;;;21.75;31.53
16100;BME280;8154;50.830;12.082;2023-02-01T00:36:42;99411.78;;;21.74;31.57
16100;BME280;8154;50.830;12.082;2023-02-01T00:39:11;99401.50;;;21.71;31.76
16100;BME280;8154;50.830;12.082;2023-02-01T00:41:39;99409.97;;;21.75;31.52
16100;BME280;8154;50.830;12.082;2023-02-01T00:44:10;99403.66;;;21.76;31.58
16100;BME280;8154;50.830;12.082;2023-02-01T00:46:37;99418.59;;;21.77;31.59
16100;BME280;8154;50.830;12.082;2023-02-01T00:49:05;99417.09;;;21.74;31.54
16100;BME280;8154;50.830;12.082;2023-02-01T00:51:37;99424.94;;;21.76;31.53
16100;BME280;8154;50.830;12.082;2023-02-01T00:54:09;99414.63;;;21.73;31.47
16100;BME280;8154;50.830;12.082;2023-02-01T00:56:37;99425.75;;;21.76;31.56
16100;BME280;8154;50.830;12.082;2023-02-01T00:59:05;99432.06;;;21.75;31.54
16100;BME280;8154;50.830;12.082;2023-02-01T01:01:35;99426.56;;;21.77;31.41
16100;BME280;8154;50.830;12.082;2023-02-01T01:04:05;99433.19;;;21.81;31.42
16100;BME280;8154;50.830;12.082;2023-02-01T01:06:36;99440.31;;;21.80;31.36
16100;BME280;8154;50.830;12.082;2023-02-01T01:09:07;99435.56;;;21.76;31.44
16100;BME280;8154;50.830;12.082;2023-02-01T01:11:37;99449.03;;;21.74;31.49
16100;BME280;8154;50.830;12.082;2023-02-01T01:42:11;99429.75;;;21.72;31.56
16100;BME280;8154;50.830;12.082;2023-02-01T01:45:01;99419.09;;;21.72;31.53
16100;BME280;8154;50.830;12.082;2023-02-01T01:47:43;99419.09;;;21.72;31.52
16100;BME280;8154;50.830;12.082;2023-02-01T01:50:19;99411.97;;;21.73;31.49
16100;BME280;8154;50.830;12.082;2023-02-01T01:52:53;99403.66;;;21.76;31.49
16100;BME280;8154;50.830;12.082;2023-02-01T01:55:24;99412.09;;;21.79;31.40
16100;BME280;8154;50.830;12.082;2023-02-01T01:58:06;99404.47;;;21.76;31.60
16100;BME280;8154;50.830;12.082;2023-02-01T02:00:35;99400.31;;;21.74;31.49
16100;BME280;8154;50.830;12.082;2023-02-01T02:05:48;99405.81;;;21.72;31.45
16100;BME280;8154;50.830;12.082;2023-02-01T02:08:18;99402.16;;;21.73;31.54
16100;BME280;8154;50.830;12.082;2023-02-01T02:10:51;99391.53;;;21.73;31.49
16100;BME280;8154;50.830;12.082;2023-02-01T02:13:40;99388.41;;;21.70;31.44
16100;BME280;8154;50.830;12.082;2023-02-01T03:19:29;99356.47;;;21.70;31.49
16100;BME280;8154;50.830;12.082;2023-02-01T03:22:04;99359.59;;;21.73;31.43
16100;BME280;8154;50.830;12.082;2023-02-01T03:27:27;99344.28;;;21.75;31.54
16100;BME280;8154;50.830;12.082;2023-02-01T03:30:15;99338.31;;;21.73;31.46
16100;BME280;8154;50.830;12.082;2023-02-01T03:32:48;99344.00;;;21.70;31.49
16100;BME280;8154;50.830;12.082;2023-02-01T03:41:03;99333.56;;;21.69;31.52
16100;BME280;8154;50.830;12.082;2023-02-01T03:43:59;99330.34;;;21.73;31.32
16100;BME280;8154;50.830;12.082;2023-02-01T03:46:39;99329.31;;;21.74;31.37
16100;BME280;8154;50.830;12.082;2023-02-01T03:49:13;99328.06;;;21.70;31.43
16100;BME280;8154;50.830;12.082;2023-02-01T03:51:45;99319.25;;;21.70;31.50
16100;BME280;8154;50.830;12.082;2023-02-01T03:54:15;99318.78;;;21.66;31.51
16100;BME280;8154;50.830;12.082;2023-02-01T03:56:47;99309.81;;;21.67;31.45
16100;BME280;8154;50.830;12.082;2023-02-01T03:59:15;99314.94;;;21.69;31.49
16100;BME280;8154;50.830;12.082;2023-02-01T04:01:44;99305.47;;;21.66;31.45
16100;BME280;8154;50.830;12.082;2023-02-01T04:04:17;99303.28;;;21.70;31.49
16100;BME280;8154;50.830;12.082;2023-02-01T04:06:50;99298.59;;;21.72;31.42
16100;BME280;8154;50.830;12.082;2023-02-01T04:09:19;99298.41;;;21.73;31.44
16100;BME280;8154;50.830;12.082;2023-02-01T04:11:51;99299.41;;;21.72;31.22
16100;BME280;8154;50.830;12.082;2023-02-01T04:14:19;99302.25;;;21.71;31.43
16100;BME280;8154;50.830;12.082;2023-02-01T04:16:47;99302.44;;;21.69;31.51
16100;BME280;8154;50.830;12.082;2023-02-01T04:19:14;99303.47;;;21.68;31.57
16100;BME280;8154;50.830;12.082;2023-02-01T05:20:49;99218.75;;;21.65;31.50
16100;BME280;8154;50.830;12.082;2023-02-01T05:23:18;99211.59;;;21.66;31.43
16100;BME280;8154;50.830;12.082;2023-02-01T05:25:46;99207.06;;;21.66;31.54
16100;BME280;8154;50.830;12.082;2023-02-01T05:28:19;99207.34;;;21.71;31.43
16100;BME280;8154;50.830;12.082;2023-02-01T05:30:47;99201.00;;;21.72;31.37
16100;BME280;8154;50.830;12.082;2023-02-01T05:33:15;99196.88;;;21.70;31.59
16100;BME280;8154;50.830;12.082;2023-02-01T05:35:44;99196.06;;;21.69;31.47
16100;BME280;8154;50.830;12.082;2023-02-01T05:38:18;99193.41;;;21.69;31.37
16100;BME280;8154;50.830;12.082;2023-02-01T05:40:47;99193.41;;;21.69;31.44
16100;BME280;8154;50.830;12.082;2023-02-01T05:43:17;99190.75;;;21.69;31.49
16100;BME280;8154;50.830;12.082;2023-02-01T05:45:46;99186.63;;;21.67;31.50
16100;BME280;8154;50.830;12.082;2023-02-01T05:48:17;99189.94;;;21.69;31.48
16100;BME280;8154;50.830;12.082;2023-02-01T05:50:48;99197.06;;;21.68;31.51
16100;BME280;8154;50.830;12.082;2023-02-01T05:53:20;99192.59;;;21.69;31.54
16100;BME280;8154;50.830;12.082;2023-02-01T05:55:51;99188.72;;;21.71;31.43
16100;BME280;8154;50.830;12.082;2023-02-01T05:58:21;99177.69;;;21.74;31.43
16100;BME280;8154;50.830;12.082;2023-02-01T06:00:52;99185.50;;;21.76;31.37
16100;BME280;8154;50.830;12.082;2023-02-01T06:03:24;99178.72;;;21.73;31.41
16100;BME280;8154;50.830;12.082;2023-02-01T06:05:52;99189.56;;;21.72;31.37
16100;BME280;8154;50.830;12.082;2023-02-01T06:08:22;99185.41;;;21.69;31.55
16100;BME280;8154;50.830;12.082;2023-02-01T06:11:06;99180.09;;;21.69;31.51
16100;BME280;8154;50.830;12.082;2023-02-01T06:13:35;99179.28;;;21.69;31.52
16100;BME280;8154;50.830;12.082;2023-02-01T06:16:08;99178.06;;;21.71;31.50
16100;BME280;8154;50.830;12.082;2023-02-01T06:18:37;99184.69;;;21.75;31.49
16100;BME280;8154;50.830;12.082;2023-02-01T10:29:47;99251.47;;;22.01;31.39
16100;BME280;8154;50.830;12.082;2023-02-01T10:32:21;99252.91;;;22.04;31.37
16100;BME280;8154;50.830;12.082;2023-02-01T10:34:55;99250.06;;;22.05;31.26
16100;BME280;8154;50.830;12.082;2023-02-01T10:37:23;99254.16;;;22.08;31.22
16100;BME280;8154;50.830;12.082;2023-02-01T10:42:44;99258.03;;;22.05;31.33
16100;BME280;8154;50.830;12.082;2023-02-01T10:45:22;99247.41;;;22.05;31.37
16100;BME280;8154;50.830;12.082;2023-02-01T10:47:54;99249.88;;;22.07;31.30
16100;BME280;8154;50.830;12.082;2023-02-01T10:50:33;99237.00;;;22.10;31.32
16100;BME280;8154;50.830;12.082;2023-02-01T10:53:15;99241.69;;;22.08;31.33
16100;BME280;8154;50.830;12.082;2023-02-01T10:55:53;99244.34;;;22.08;31.25
16100;BME280;8154;50.830;12.082;2023-02-01T10:58:30;99222.41;;;22.06;31.30
16100;BME280;8154;50.830;12.082;2023-02-01T11:01:17;99241.06;;;22.06;31.29
16100;BME280;8154;50.830;12.082;2023-02-01T11:09:24;99234.53;;;22.09;31.38
16100;BME280;8154;50.830;12.082;2023-02-01T11:20:13;99219.00;;;22.12;31.16
16100;BME280;8154;50.830;12.082;2023-02-01T11:22:49;99200.34;;;22.12;31.29
16100;BME280;8154;50.830;12.082;2023-02-01T12:27:35;99183.19;;;22.15;31.36
16100;BME280;8154;50.830;12.082;2023-02-01T12:35:38;99174.38;;;22.14;31.38
16100;BME280;8154;50.830;12.082;2023-02-01T12:46:40;99174.00;;;22.17;31.38
16100;BME280;8154;50.830;12.082;2023-02-01T12:49:22;99165.38;;;22.15;31.22
16100;BME280;8154;50.830;12.082;2023-02-01T12:52:04;99167.03;;;22.16;31.38
16100;BME280;8154;50.830;12.082;2023-02-01T12:57:21;99167.47;;;22.20;31.26
16100;BME280;8154;50.830;12.082;2023-02-01T13:03:03;99150.03;;;22.17;31.26
16100;BME280;8154;50.830;12.082;2023-02-01T13:08:19;99148.84;;;22.20;31.29
16100;BME280;8154;50.830;12.082;2023-02-01T13:11:15;99159.66;;;22.18;31.26
16100;BME280;8154;50.830;12.082;2023-02-01T13:13:56;99151.88;;;22.17;31.31
16100;BME280;8154;50.830;12.082;2023-02-01T13:21:42;99133.88;;;22.19;31.27
16100;BME280;8154;50.830;12.082;2023-02-01T13:24:35;99138.38;;;22.18;31.23
16100;BME280;8154;50.830;12.082;2023-02-01T13:27:03;99120.94;;;22.16;31.43
16100;BME280;8154;50.830;12.082;2023-02-01T13:29:31;99116.25;;;22.18;31.22
16100;BME280;8154;50.830;12.082;2023-02-01T13:32:13;99110.13;;;22.17;31.16
16100;BME280;8154;50.830;12.082;2023-02-01T13:35:20;99111.56;;;22.20;31.11
16100;BME280;8154;50.830;12.082;2023-02-01T13:43:41;99090.84;;;22.15;31.34
16100;BME280;8154;50.830;12.082;2023-02-01T13:46:14;99078.38;;;22.16;31.33
16100;BME280;8154;50.830;12.082;2023-02-01T13:48:57;99084.53;;;22.16;31.40
16100;BME280;8154;50.830;12.082;2023-02-01T13:51:56;99074.69;;;22.17;31.23
16100;BME280;8154;50.830;12.082;2023-02-01T13:54:34;99064.47;;;22.20;31.23
16100;BME280;8154;50.830;12.082;2023-02-01T13:57:04;99051.78;;;22.22;31.17
16100;BME280;8154;50.830;12.082;2023-02-01T14:05:57;99056.69;;;22.19;31.27
16100;BME280;8154;50.830;12.082;2023-02-01T14:10:52;99059.34;;;22.19;31.32
16100;BME280;8154;50.830;12.082;2023-02-01T14:21:24;99074.13;;;22.21;31.10
16100;BME280;8154;50.830;12.082;2023-02-01T14:32:17;99055.47;;;22.21;31.15
16100;BME280;8154;50.830;12.082;2023-02-01T14:39:55;99027.63;;;22.24;31.18
16100;BME280;8154;50.830;12.082;2023-02-01T14:42:29;99026.81;;;22.23;31.28
16100;BME280;8154;50.830;12.082;2023-02-01T14:47:53;99027.00;;;22.22;31.20
16100;BME280;8154;50.830;12.082;2023-02-01T14:55:53;99032.53;;;22.20;31.36
16100;BME280;8154;50.830;12.082;2023-02-01T15:04:15;99020.47;;;22.24;31.33
16100;BME280;8154;50.830;12.082;2023-02-01T15:06:54;99017.19;;;22.22;31.26
16100;BME280;8154;50.830;12.082;2023-02-01T15:09:28;99006.53;;;22.22;31.18
16100;BME280;8154;50.830;12.082;2023-02-01T15:12:02;99008.19;;;22.23;31.17
16100;BME280;8154;50.830;12.082;2023-02-01T15:14:34;99027.84;;;22.22;31.24
16100;BME280;8154;50.830;12.082;2023-02-01T15:17:02;99022.50;;;22.22;31.27
16100;BME280;8154;50.830;12.082;2023-02-01T16:18:34;99005.91;;;22.20;31.23
16100;BME280;8154;50.830;12.082;2023-02-01T16:21:01;98991.19;;;22.24;31.22
16100;BME280;8154;50.830;12.082;2023-02-01T16:23:28;99006.53;;;22.22;31.26
16100;BME280;8154;50.830;12.082;2023-02-01T16:25:57;98993.44;;;22.21;31.27
16100;BME280;8154;50.830;12.082;2023-02-01T16:28:24;98987.28;;;22.20;31.33
16100;BME280;8154;50.830;12.082;2023-02-01T16:30:52;98989.13;;;22.20;31.49
16100;BME280;8154;50.830;12.082;2023-02-01T16:33:21;98990.97;;;22.19;31.15
16100;BME280;8154;50.830;12.082;2023-02-01T16:35:51;98994.88;;;22.23;31.22
16100;BME280;8154;50.830;12.082;2023-02-01T16:38:22;98991.41;;;22.23;31.23
16100;BME280;8154;50.830;12.082;2023-02-01T16:40:51;98985.25;;;22.22;31.22
16100;BME280;8154;50.830;12.082;2023-02-01T16:43:20;98995.91;;;22.22;31.15
16100;BME280;8154;50.830;12.082;2023-02-01T16:45:48;98999.13;;;21.77;33.47
16100;BME280;8154;50.830;12.082;2023-02-01T16:48:27;99000.88;;;21.15;34.66
16100;BME280;8154;50.830;12.082;2023-02-01T16:51:08;98996.31;;;21.09;34.56
16100;BME280;8154;50.830;12.082;2023-02-01T16:53:37;98986.56;;;20.95;34.69
16100;BME280;8154;50.830;12.082;2023-02-01T16:56:16;99002.22;;;20.90;34.92
16100;BME280;8154;50.830;12.082;2023-02-01T16:58:46;98978.69;;;20.87;35.00
16100;BME280;8154;50.830;12.082;2023-02-01T17:01:16;98994.63;;;20.87;35.32
16100;BME280;8154;50.830;12.082;2023-02-01T17:03:44;99012.81;;;20.83;35.42
16100;BME280;8154;50.830;12.082;2023-02-01T17:06:19;99037.69;;;20.82;35.51
16100;BME280;8154;50.830;12.082;2023-02-01T17:08:52;99043.00;;;20.82;35.59
16100;BME280;8154;50.830;12.082;2023-02-01T17:11:21;99081.97;;;20.75;35.88
16100;BME280;8154;50.830;12.082;2023-02-01T17:13:50;99108.53;;;20.61;36.34
16100;BME280;8154;50.830;12.082;2023-02-01T17:16:26;99158.81;;;20.62;36.49
16100;BME280;8154;50.830;12.082;2023-02-01T18:20:45;99163.75;;;20.51;43.58
16100;BME280;8154;50.830;12.082;2023-02-01T18:23:23;99177.22;;;20.49;43.55
16100;BME280;8154;50.830;12.082;2023-02-01T18:25:51;99163.41;;;20.54;43.53
16100;BME280;8154;50.830;12.082;2023-02-01T18:28:20;99161.09;;;20.51;43.71
16100;BME280;8154;50.830;12.082;2023-02-01T18:30:50;99166.31;;;20.44;44.09
16100;BME280;8154;50.830;12.082;2023-02-01T18:33:20;99163.69;;;20.59;44.30
16100;BME280;8154;50.830;12.082;2023-02-01T18:35:48;99170.44;;;20.61;44.18
16100;BME280;8154;50.830;12.082;2023-02-01T18:38:14;99166.50;;;20.57;44.28
16100;BME280;8154;50.830;12.082;2023-02-01T18:40:49;99160.38;;;20.57;44.89
16100;BME280;8154;50.830;12.082;2023-02-01T18:43:21;99174.28;;;20.59;44.52
16100;BME280;8154;50.830;12.082;2023-02-01T18:45:54;99170.72;;;20.52;44.62
16100;BME280;8154;50.830;12.082;2023-02-01T18:48:22;99173.38;;;20.52;44.85
16100;BME280;8154;50.830;12.082;2023-02-01T18:50:50;99182.97;;;20.53;44.79
16100;BME280;8154;50.830;12.082;2023-02-01T18:53:22;99180.97;;;20.55;45.03
16100;BME280;8154;50.830;12.082;2023-02-01T18:55:53;99177.13;;;20.57;45.09
16100;BME280;8154;50.830;12.082;2023-02-01T18:58:21;99175.56;;;20.63;45.00
16100;BME280;8154;50.830;12.082;2023-02-01T19:00:55;99184.25;;;20.57;45.06
16100;BME280;8154;50.830;12.082;2023-02-01T19:03:28;99167.97;;;20.45;45.88
16100;BME280;8154;50.830;12.082;2023-02-01T19:06:01;99169.53;;;20.54;45.84
16100;BME280;8154;50.830;12.082;2023-02-01T19:08:35;99168.88;;;20.52;45.73
16100;BME280;8154;50.830;12.082;2023-02-01T19:11:09;99166.88;;;20.54;45.89
16100;BME280;8154;50.830;12.082;2023-02-01T19:13:39;99175.94;;;20.60;46.66
16100;BME280;8154;50.830;12.082;2023-02-01T19:16:12;99181.78;;;20.70;45.68
16100;BME280;8154;50.830;12.082;2023-02-01T19:18:49;99168.06;;;20.66;45.91
16100;BME280;8154;50.830;12.082;2023-02-01T20:22:25;99198.81;;;20.46;46.11
16100;BME280;8154;50.830;12.082;2023-02-01T20:25:12;99196.53;;;20.43;46.50
16100;BME280;8154;50.830;12.082;2023-02-01T20:27:41;99183.06;;;20.45;46.41
16100;BME280;8154;50.830;12.082;2023-02-01T20:30:09;99199.25;;;20.50;46.24
16100;BME280;8154;50.830;12.082;2023-02-01T20:32:38;99201.56;;;20.53;46.17
16100;BME280;8154;50.830;12.082;2023-02-01T20:35:14;99197.34;;;20.44;46.30
16100;BME280;8154;50.830;12.082;2023-02-01T20:37:42;99203.47;;;20.44;46.51
16100;BME280;8154;50.830;12.082;2023-02-01T20:40:12;99197.88;;;20.39;46.71
16100;BME280;8154;50.830;12.082;2023-02-01T20:42:42;99196.91;;;20.40;46.72
16100;BME280;8154;50.830;12.082;2023-02-01T20:45:17;99200.53;;;20.39;46.57
16100;BME280;8154;50.830;12.082;2023-02-01T20:47:49;99201.91;;;20.50;46.56
16100;BME280;8154;50.830;12.082;2023-02-01T20:50:21;99210.63;;;20.58;46.00
16100;BME280;8154;50.830;12.082;2023-02-01T20:52:54;99217.94;;;20.56;45.98
16100;BME280;8154;50.830;12.082;2023-02-01T20:55:37;99220.31;;;20.51;46.08
16100;BME280;8154;50.830;12.082;2023-02-01T20:58:13;99217.41;;;20.46;46.19
16100;BME280;8154;50.830;12.082;2023-02-01T21:00:41;99216.94;;;20.43;46.26
16100;BME280;8154;50.830;12.082;2023-02-01T21:03:11;99218.94;;;20.41;46.29
16100;BME280;8154;50.830;12.082;2023-02-01T21:05:47;99219.59;;;20.43;46.43
16100;BME280;8154;50.830;12.082;2023-02-01T21:08:22;99225.38;;;20.46;46.38
16100;BME280;8154;50.830;12.082;2023-02-01T21:11:06;99217.59;;;20.45;46.35
16100;BME280;8154;50.830;12.082;2023-02-01T21:13:40;99224.44;;;20.39;46.56
16100;BME280;8154;50.830;12.082;2023-02-01T21:16:12;99216.66;;;20.38;46.62
16100;BME280;8154;50.830;12.082;2023-02-01T21:18:41;99225.44;;;20.38;46.48
16100;BME280;8154;50.830;12.082;2023-02-01T21:21:15;99221.94;;;20.38;46.38
16100;BME280;8154;50.830;12.082;2023-02-01T21:23:44;99225.63;;;20.37;46.38
16100;BME280;8154;50.830;12.082;2023-02-01T21:26:17;99229.84;;;20.46;46.24
16100;BME280;8154;50.830;12.082;2023-02-01T21:28:45;99240.56;;;20.52;46.04
16100;BME280;8154;50.830;12.082;2023-02-01T21:31:14;99241.38;;;20.53;45.98
16100;BME280;8154;50.830;12.082;2023-02-01T21:34:13;99250.06;;;20.47;46.47
16100;BME280;8154;50.830;12.082;2023-02-01T21:36:40;99242.63;;;20.42;46.40
16100;BME280;8154;50.830;12.082;2023-02-01T21:39:08;99235.22;;;20.38;46.45
16100;BME280;8154;50.830;12.082;2023-02-01T21:41:38;99241.56;;;20.37;46.49
16100;BME280;8154;50.830;12.082;2023-02-01T21:44:23;99250.34;;;20.37;46.63
16100;BME280;8154;50.830;12.082;2023-02-01T21:46:51;99237.50;;;20.41;46.55
16100;BME280;8154;50.830;12.082;2023-02-01T21:49:23;99251.81;;;20.40;46.41
16100;BME280;8154;50.830;12.082;2023-02-01T21:51:55;99256.09;;;20.41;46.34
16100;BME280;8154;50.830;12.082;2023-02-01T21:54:22;99266.34;;;20.44;46.03
16100;BME280;8154;50.830;12.082;2023-02-01T21:56:49;99264.06;;;20.41;46.29
16100;BME280;8154;50.830;12.082;2023-02-01T21:59:16;99264.53;;;20.44;45.95
16100;BME280;8154;50.830;12.082;2023-02-01T22:01:44;99277.13;;;20.79;45.49
16100;BME280;8154;50.830;12.082;2023-02-01T22:04:10;99273.13;;;20.98;45.06
16100;BME280;8154;50.830;12.082;2023-02-01T22:06:39;99266.97;;;21.12;44.55
16100;BME280;8154;50.830;12.082;2023-02-01T22:09:22;99264.22;;;21.20;44.46
16100;BME280;8154;50.830;12.082;2023-02-01T22:11:52;99265.94;;;21.28;44.10
16100;BME280;8154;50.830;12.082;2023-02-01T22:14:19;99259.09;;;21.33;44.68
16100;BME280;8154;50.830;12.082;2023-02-01T22:16:48;99265.28;;;21.40;44.35
16100;BME280;8154;50.830;12.082;2023-02-01T22:19:15;99256.28;;;21.41;44.11
16100;BME280;8154;50.830;12.082;2023-02-01T22:21:48;99250.59;;;21.44;44.00
16100;BME280;8154;50.830;12.082;2023-02-01T22:24:16;99250.25;;;21.47;43.88
16100;BME280;8154;50.830;12.082;2023-02-01T22:26:45;99255.19;;;21.50;43.86
16100;BME280;8154;50.830;12.082;2023-02-01T22:29:11;99245.38;;;21.51;43.77
16100;BME280;8154;50.830;12.082;2023-02-01T22:31:41;99260.53;;;21.50;43.85
16100;BME280;8154;50.830;12.082;2023-02-01T22:34:11;99256.00;;;21.51;43.97
16100;BME280;8154;50.830;12.082;2023-02-01T22:36:38;99253.16;;;21.52;43.89
16100;BME280;8154;50.830;12.082;2023-02-01T22:39:05;99248.28;;;21.56;43.94
16100;BME280;8154;50.830;12.082;2023-02-01T22:41:32;99246.88;;;21.60;43.99
16100;BME280;8154;50.830;12.082;2023-02-01T22:43:58;99246.88;;;21.60;43.85
16100;BME280;8154;50.830;12.082;2023-02-01T22:46:28;99246.28;;;21.58;43.77
16100;BME280;8154;50.830;12.082;2023-02-01T22:49:05;99255.44;;;21.55;43.89
16100;BME280;8154;50.830;12.082;2023-02-01T22:51:32;99256.47;;;21.54;43.94
16100;BME280;8154;50.830;12.082;2023-02-01T22:53:59;99256.84;;;21.51;44.10
16100;BME280;8154;50.830;12.082;2023-02-01T22:56:31;99264.06;;;21.57;43.95
16100;BME280;8154;50.830;12.082;2023-02-01T22:59:04;99266.34;;;21.60;43.99
16100;BME280;8154;50.830;12.082;2023-02-01T23:01:33;99261.84;;;21.61;43.73
16100;BME280;8154;50.830;12.082;2023-02-01T23:04:01;99265.97;;;21.63;43.85
16100;BME280;8154;50.830;12.082;2023-02-01T23:06:30;99267.88;;;21.69;43.68
16100;BME280;8154;50.830;12.082;2023-02-01T23:09:01;99263.75;;;21.67;43.76
16100;BME280;8154;50.830;12.082;2023-02-01T23:11:29;99263.13;;;21.65;43.90
16100;BME280;8154;50.830;12.082;2023-02-01T23:13:57;99261.47;;;21.64;43.90
16100;BME280;8154;50.830;12.082;2023-02-01T23:16:25;99265.50;;;21.60;43.93
16100;BME280;8154;50.830;12.082;2023-02-01T23:18:51;99262.84;;;21.60;43.86
16100;BME280;8154;50.830;12.082;2023-02-01T23:21:19;99262.03;;;21.59;43.83
16100;BME280;8154;50.830;12.082;2023-02-01T23:23:50;99262.03;;;21.59;43.89
16100;BME280;8154;50.830;12.082;2023-02-01T23:26:18;99263.03;;;21.58;43.97
16100;BME280;8154;50.830;12.082;2023-02-01T23:28:46;99255.69;;;21.60;44.02
16100;BME280;8154;50.830;12.082;2023-02-01T23:31:16;99265.22;;;21.69;43.75
16100;BME280;8154;50.830;12.082;2023-02-01T23:33:44;99274.66;;;21.72;43.64
16100;BME280;8154;50.830;12.082;2023-02-01T23:36:15;99283.03;;;21.69;43.87
16100;BME280;8154;50.830;12.082;2023-02-01T23:38:43;99277.06;;;21.67;43.83
16100;BME280;8154;50.830;12.082;2023-02-01T23:41:11;99273.56;;;21.66;43.83
16100;BME280;8154;50.830;12.082;2023-02-01T23:43:37;99283.41;;;21.66;43.97
16100;BME280;8154;50.830;12.082;2023-02-01T23:46:43;99280.25;;;21.27;42.32
16100;BME280;8154;50.830;12.082;2023-02-01T23:49:13;99277.13;;;21.23;44.21
16100;BME280;8154;50.830;12.082;2023-02-01T23:51:41;99281.63;;;21.37;43.71
16100;BME280;8154;50.830;12.082;2023-02-01T23:54:10;99281.06;;;21.42;43.28
16100;BME280;8154;50.830;12.082;2023-02-01T23:56:42;99278.84;;;21.45;43.08
16100;BME280;8154;50.830;12.082;2023-02-01T23:59:12;99275.19;;;21.46;42.88
